Decoded Metar for KD95 ( in ) (IATA:) | Meteo·Mobile Aviation Weather
aviador You're here:

KD95 Decoded Metar

in
Report Time2018-11-14 10:55:00
UTC Time2018-11-14 11:19:24
Flight Rules vfr VFR
WindCalm
Visibility9999 m
Phenomena:N/A
Clouds:Overcast 035 Hf
Expected CloudBase > 2,000 ft AGL from Temp-Dew spread
Ceiling3,500 ft
Temp-5°C
Dew Point-10°C (68% RH)
AAT-8.1°C
QNH1031 hPa
Raw Report
KD95 141055Z AUTO 00000KT 10SM OVC035 M05/M10 A3046 RMK AO2
T10501103=

Extra information for KD95:More info

Social comments